createdAt,value
2023-08-12T00:03:40.921Z,59.60
2023-08-12T00:08:48.092Z,59.86
2023-08-12T00:13:55.604Z,59.78
2023-08-12T00:19:03.311Z,59.55
2023-08-12T00:24:10.734Z,59.76
2023-08-12T00:29:18.013Z,59.85
2023-08-12T00:34:25.173Z,59.70
2023-08-12T00:39:32.580Z,59.87
2023-08-12T00:44:39.593Z,59.71
2023-08-12T00:49:47.343Z,59.86
2023-08-12T00:54:54.412Z,59.66
2023-08-12T01:00:02.318Z,59.82
2023-08-12T01:05:10.165Z,59.88
2023-08-12T01:10:18.349Z,59.78
2023-08-12T01:15:27.814Z,59.64
2023-08-12T01:20:35.011Z,60.03
2023-08-12T01:25:42.314Z,59.68
2023-08-12T01:30:52.462Z,59.74
2023-08-12T01:36:03.793Z,59.82
2023-08-12T01:41:12.534Z,59.91
2023-08-12T01:46:19.916Z,59.76
2023-08-12T01:51:27.343Z,59.77
2023-08-12T01:56:34.524Z,59.78
2023-08-12T02:01:41.956Z,59.86
2023-08-12T02:06:49.119Z,59.83
2023-08-12T02:11:56.440Z,59.83
2023-08-12T02:17:03.631Z,59.77
2023-08-12T02:22:12.121Z,59.90
2023-08-12T02:27:19.386Z,59.86
2023-08-12T02:32:26.692Z,59.72
2023-08-12T02:37:33.926Z,60.05
2023-08-12T02:42:41.085Z,59.63
2023-08-12T02:47:48.335Z,59.75
2023-08-12T02:52:55.523Z,59.90
2023-08-12T02:58:03.055Z,59.93
2023-08-12T03:03:10.189Z,59.81
2023-08-12T03:08:17.422Z,59.98
2023-08-12T03:13:24.624Z,59.90
2023-08-12T03:18:32.032Z,59.87
2023-08-12T03:23:40.397Z,59.83
2023-08-12T03:28:47.678Z,59.87
2023-08-12T03:33:55.048Z,59.90
2023-08-12T03:39:02.445Z,60.02
2023-08-12T03:44:09.680Z,59.94
2023-08-12T03:49:16.890Z,59.96
2023-08-12T03:54:24.092Z,59.87
2023-08-12T03:59:31.161Z,59.75
2023-08-12T04:04:38.483Z,59.70
2023-08-12T04:09:45.752Z,59.37
2023-08-12T04:14:52.782Z,59.43
2023-08-12T04:19:59.922Z,59.47
2023-08-12T04:25:07.432Z,59.40
2023-08-12T04:30:15.599Z,59.44
2023-08-12T04:35:22.682Z,59.78
2023-08-12T04:40:30.376Z,59.70
2023-08-12T04:45:37.697Z,59.71
2023-08-12T04:50:45.161Z,59.67
2023-08-12T04:55:54.697Z,59.73
2023-08-12T05:01:03.643Z,59.79
2023-08-12T05:06:11.261Z,59.82
2023-08-12T05:11:18.645Z,59.96
2023-08-12T05:16:25.635Z,59.93
2023-08-12T05:21:32.618Z,59.97
2023-08-12T05:26:39.754Z,59.86
2023-08-12T05:31:47.126Z,59.74
2023-08-12T05:36:54.402Z,59.60
2023-08-12T05:42:01.778Z,59.87
2023-08-12T05:47:09.006Z,59.75
2023-08-12T05:52:16.568Z,59.72
2023-08-12T05:57:25.325Z,59.92
2023-08-12T06:02:34.189Z,59.86
2023-08-12T06:07:41.193Z,59.73
2023-08-12T06:12:48.312Z,59.91
2023-08-12T06:17:55.731Z,59.84
2023-08-12T06:23:03.119Z,59.84
2023-08-12T06:28:10.891Z,59.91
2023-08-12T06:33:18.277Z,59.88
2023-08-12T06:38:25.197Z,59.85
2023-08-12T06:43:32.535Z,60.01
2023-08-12T06:48:39.764Z,60.03
2023-08-12T06:53:46.718Z,60.10
2023-08-12T06:58:54.286Z,60.05
2023-08-12T07:04:01.611Z,60.09
2023-08-12T07:09:09.546Z,60.05
2023-08-12T07:14:17.246Z,60.12
2023-08-12T07:19:24.730Z,60.14
2023-08-12T07:24:31.679Z,60.00
2023-08-12T07:29:38.851Z,60.21
2023-08-12T07:34:46.270Z,60.24
2023-08-12T07:39:54.118Z,60.05
2023-08-12T07:45:01.756Z,60.14
2023-08-12T07:50:09.763Z,60.20
2023-08-12T07:55:17.528Z,60.02
2023-08-12T08:00:25.267Z,60.13
2023-08-12T08:05:32.380Z,60.11
2023-08-12T08:10:39.770Z,59.98
2023-08-12T08:15:47.244Z,60.07
2023-08-12T08:20:54.474Z,59.99
2023-08-12T08:26:02.080Z,59.83
2023-08-12T08:31:09.286Z,59.94
2023-08-12T08:36:16.572Z,59.84
2023-08-12T08:41:24.633Z,59.73
2023-08-12T08:46:32.448Z,59.74
2023-08-12T08:51:39.733Z,59.65
2023-08-12T08:56:52.461Z,59.78
2023-08-12T09:02:07.603Z,59.73
2023-08-12T09:07:15.423Z,59.70
2023-08-12T09:12:23.174Z,59.66
2023-08-12T09:17:30.992Z,59.60
2023-08-12T09:22:38.084Z,59.58
2023-08-12T09:27:45.621Z,59.48
2023-08-12T09:33:03.801Z,59.47
2023-08-12T09:38:14.790Z,59.52
2023-08-12T09:43:26.374Z,59.49
2023-08-12T09:48:34.375Z,59.44
2023-08-12T09:53:42.110Z,59.37
2023-08-12T09:58:51.147Z,59.58
2023-08-12T10:03:59.407Z,59.39
2023-08-12T10:09:10.203Z,59.31
2023-08-12T10:14:18.143Z,59.24
2023-08-12T10:19:26.920Z,59.33
2023-08-12T10:24:34.540Z,59.23
2023-08-12T10:29:42.052Z,59.32
2023-08-12T10:34:57.320Z,59.33
2023-08-12T10:40:07.897Z,59.37
2023-08-12T10:45:16.016Z,59.40
2023-08-12T10:50:23.984Z,59.43
2023-08-12T10:55:31.386Z,59.51
2023-08-12T11:00:38.896Z,59.54
2023-08-12T11:05:46.985Z,59.54
2023-08-12T11:10:54.402Z,59.47
2023-08-12T11:16:11.353Z,59.56
2023-08-12T11:21:18.993Z,59.59
2023-08-12T11:26:27.014Z,59.66
2023-08-12T11:31:35.015Z,59.74
2023-08-12T11:36:42.647Z,59.61
2023-08-12T11:41:49.902Z,59.62
2023-08-12T11:46:57.241Z,59.65
2023-08-12T11:52:05.059Z,59.61
2023-08-12T11:57:12.482Z,59.64
2023-08-12T12:02:20.384Z,59.58
2023-08-12T12:07:29.046Z,59.53
2023-08-12T12:12:38.089Z,59.58
2023-08-12T12:17:45.377Z,59.80
2023-08-12T12:22:52.723Z,59.68
2023-08-12T12:28:00.165Z,59.65
2023-08-12T12:33:08.932Z,59.64
2023-08-12T12:38:16.292Z,59.54
2023-08-12T12:43:23.586Z,59.72
2023-08-12T12:48:31.100Z,59.74
2023-08-12T12:53:38.561Z,59.69
2023-08-12T12:58:46.234Z,59.80
2023-08-12T13:03:53.583Z,59.72
2023-08-12T13:09:01.293Z,59.79
2023-08-12T13:14:09.573Z,59.71
2023-08-12T13:19:17.024Z,59.65
2023-08-12T13:24:24.640Z,59.79
2023-08-12T13:29:33.116Z,59.71
2023-08-12T13:34:41.264Z,59.74
2023-08-12T13:39:48.809Z,59.69
2023-08-12T13:44:57.928Z,59.51
2023-08-12T13:50:07.464Z,59.59
2023-08-12T13:55:15.182Z,59.60
2023-08-12T14:00:22.514Z,59.61
2023-08-12T14:05:29.982Z,59.71
2023-08-12T14:10:37.583Z,59.58
2023-08-12T14:15:45.844Z,59.66
2023-08-12T14:20:53.895Z,59.65
2023-08-12T14:26:02.834Z,59.55
2023-08-12T14:31:11.962Z,59.53
2023-08-12T14:36:20.542Z,59.64
2023-08-12T14:41:28.092Z,59.54
2023-08-12T14:46:36.105Z,59.61
2023-08-12T14:51:43.971Z,59.43
2023-08-12T14:56:51.790Z,59.77
2023-08-12T15:01:59.513Z,59.57
2023-08-12T15:07:07.708Z,59.52
2023-08-12T15:12:14.969Z,59.52
2023-08-12T15:17:22.854Z,59.66
2023-08-12T15:22:30.720Z,59.59
2023-08-12T15:27:38.528Z,59.69
2023-08-12T15:32:46.694Z,59.47
2023-08-12T15:37:54.460Z,59.56
2023-08-12T15:43:02.400Z,59.50
2023-08-12T15:48:10.219Z,59.61
2023-08-12T15:53:18.002Z,59.52
2023-08-12T15:58:26.223Z,59.61
2023-08-12T16:03:33.727Z,59.55
2023-08-12T16:08:41.732Z,59.57
2023-08-12T16:13:49.272Z,59.60
2023-08-12T16:18:56.883Z,59.60
2023-08-12T16:24:04.407Z,59.68
2023-08-12T16:29:12.132Z,59.51
2023-08-12T16:34:19.300Z,59.69
2023-08-12T16:39:26.988Z,59.60
2023-08-12T16:44:34.298Z,59.67
2023-08-12T16:49:41.522Z,59.66
2023-08-12T16:54:48.881Z,59.66
2023-08-12T16:59:56.507Z,59.65
2023-08-12T17:05:03.632Z,59.65
2023-08-12T17:10:11.254Z,59.67
2023-08-12T17:15:18.455Z,59.68
2023-08-12T17:20:26.312Z,59.59
2023-08-12T17:25:33.286Z,59.58
2023-08-12T17:30:40.748Z,59.61
2023-08-12T17:35:48.571Z,59.73
2023-08-12T17:40:56.602Z,59.72
2023-08-12T17:46:04.951Z,59.73
2023-08-12T17:51:14.563Z,59.59
2023-08-12T17:56:22.531Z,59.66
2023-08-12T18:01:29.778Z,59.84
2023-08-12T18:06:37.285Z,59.82
2023-08-12T18:11:44.922Z,59.85
2023-08-12T18:16:53.443Z,59.83
2023-08-12T18:22:01.226Z,59.95
2023-08-12T18:27:08.683Z,59.75
2023-08-12T18:32:16.821Z,59.78
2023-08-12T18:37:25.292Z,59.90
2023-08-12T18:42:36.254Z,59.82
2023-08-12T18:47:44.380Z,59.84
2023-08-12T18:52:53.181Z,59.94
2023-08-12T18:58:01.132Z,59.92
2023-08-12T19:03:13.027Z,59.78
2023-08-12T19:08:22.876Z,59.74
2023-08-12T19:13:31.345Z,59.91
2023-08-12T19:18:39.697Z,59.91
2023-08-12T19:23:51.151Z,59.84
2023-08-12T19:29:01.093Z,59.90
2023-08-12T19:34:10.067Z,60.00
2023-08-12T19:39:18.713Z,59.89
2023-08-12T19:44:26.945Z,60.00
2023-08-12T19:49:35.634Z,59.93
2023-08-12T19:54:43.941Z,59.91
2023-08-12T19:59:52.123Z,59.93
2023-08-12T20:05:01.570Z,59.98
2023-08-12T20:10:11.268Z,59.91
2023-08-12T20:15:19.621Z,59.88
2023-08-12T20:20:27.993Z,60.04
2023-08-12T20:25:37.745Z,60.03
2023-08-12T20:30:46.142Z,59.96
2023-08-12T20:35:54.031Z,60.00
2023-08-12T20:41:01.938Z,60.06
2023-08-12T20:46:10.055Z,60.05
2023-08-12T20:51:18.296Z,59.92
2023-08-12T20:56:26.764Z,60.04
2023-08-12T21:01:34.297Z,59.91
2023-08-12T21:06:43.182Z,60.01
2023-08-12T21:11:52.912Z,59.93
2023-08-12T21:17:01.041Z,59.91
2023-08-12T21:22:08.492Z,60.08
2023-08-12T21:27:16.523Z,59.91
2023-08-12T21:32:24.018Z,59.98
2023-08-12T21:37:32.014Z,59.95
2023-08-12T21:42:40.724Z,60.04
2023-08-12T21:47:48.839Z,60.01
2023-08-12T21:52:56.417Z,59.93
2023-08-12T21:58:04.171Z,59.89
2023-08-12T22:03:11.733Z,60.06
2023-08-12T22:08:19.536Z,59.86
2023-08-12T22:13:27.028Z,60.13
2023-08-12T22:18:34.149Z,59.98
2023-08-12T22:23:42.973Z,59.92
2023-08-12T22:28:50.244Z,59.99
2023-08-12T22:33:58.094Z,60.00
2023-08-12T22:39:06.014Z,60.01
2023-08-12T22:44:13.292Z,60.06
2023-08-12T22:49:20.303Z,60.04
2023-08-12T22:54:27.509Z,59.93
2023-08-12T22:59:34.940Z,59.97
2023-08-12T23:04:42.333Z,59.90
2023-08-12T23:09:49.394Z,60.08
2023-08-12T23:14:56.802Z,60.10
2023-08-12T23:20:05.179Z,60.07
2023-08-12T23:25:13.565Z,59.99
2023-08-12T23:30:20.804Z,60.06
2023-08-12T23:35:27.990Z,59.93
2023-08-12T23:40:36.442Z,59.98
2023-08-12T23:45:43.920Z,60.02
2023-08-12T23:50:53.382Z,59.96
2023-08-12T23:56:00.310Z,60.04
